createdAt,value
2016-06-20T00:01:44.934Z,1018.24
2016-06-20T00:04:58.444Z,1018.11
2016-06-20T00:08:11.958Z,1018.09
2016-06-20T00:11:29.281Z,1018.05
2016-06-20T00:14:33.760Z,1017.99
2016-06-20T00:17:46.910Z,1018.01
2016-06-20T00:21:00.390Z,1017.99
2016-06-20T00:24:13.685Z,1017.87
2016-06-20T00:27:31.009Z,1017.87
2016-06-20T00:30:35.596Z,1017.91
2016-06-20T00:33:48.982Z,1017.75
2016-06-20T00:37:02.384Z,1017.77
2016-06-20T00:40:15.740Z,1017.71
2016-06-20T00:43:32.439Z,1017.65
2016-06-20T00:46:36.980Z,1017.65
2016-06-20T00:49:49.413Z,1017.71
2016-06-20T00:53:03.547Z,1017.67
2016-06-20T00:56:16.858Z,1017.63
2016-06-20T00:59:34.088Z,1017.77
2016-06-20T01:02:38.629Z,1017.69
2016-06-20T01:05:51.765Z,1017.73
2016-06-20T01:09:05.259Z,1017.77
2016-06-20T01:12:18.633Z,1017.69
2016-06-20T01:15:32.050Z,1017.65
2016-06-20T01:18:46.184Z,1017.69
2016-06-20T01:21:57.914Z,1017.65
2016-06-20T01:25:11.128Z,1017.67
2016-06-20T01:28:28.564Z,1017.57
2016-06-20T01:31:32.964Z,1017.69
2016-06-20T01:34:45.943Z,1017.71
2016-06-20T01:37:58.985Z,1017.55
2016-06-20T01:41:12.261Z,1017.61
2016-06-20T01:44:29.619Z,1017.61
2016-06-20T01:47:33.004Z,1017.49
2016-06-20T01:50:47.295Z,1017.65
2016-06-20T01:54:00.165Z,1017.63
2016-06-20T01:57:13.238Z,1017.55
2016-06-20T02:00:30.408Z,1017.45
2016-06-20T02:03:34.856Z,1017.51
2016-06-20T02:06:48.179Z,1017.49
2016-06-20T02:10:01.548Z,1017.51
2016-06-20T02:13:14.591Z,1017.43
2016-06-20T02:16:31.697Z,1017.47
2016-06-20T02:19:35.957Z,1017.47
2016-06-20T02:22:48.953Z,1017.41
2016-06-20T02:26:02.010Z,1017.35
2016-06-20T02:29:15.083Z,1017.37
2016-06-20T02:32:31.753Z,1017.41
2016-06-20T02:35:35.904Z,1017.43
2016-06-20T02:38:48.992Z,1017.43
2016-06-20T02:42:02.144Z,1017.53
2016-06-20T02:45:15.248Z,1017.59
2016-06-20T02:48:32.355Z,1017.53
2016-06-20T02:51:36.553Z,1017.57
2016-06-20T02:54:49.625Z,1017.59
2016-06-20T02:58:02.681Z,1017.63
2016-06-20T03:01:15.809Z,1017.53
2016-06-20T03:04:33.074Z,1017.43
2016-06-20T03:07:37.371Z,1017.57
2016-06-20T03:10:50.385Z,1017.67
2016-06-20T03:14:03.444Z,1017.67
2016-06-20T03:17:16.595Z,1017.61
2016-06-20T03:20:33.596Z,1017.55
2016-06-20T03:23:37.575Z,1017.63
2016-06-20T03:26:50.695Z,1017.65
2016-06-20T03:30:03.549Z,1017.59
2016-06-20T03:33:16.449Z,1017.67
2016-06-20T03:36:33.291Z,1017.57
2016-06-20T03:39:37.349Z,1017.49
2016-06-20T03:42:50.109Z,1017.55
2016-06-20T03:46:02.917Z,1017.49
2016-06-20T03:49:15.848Z,1017.61
2016-06-20T03:52:32.831Z,1017.51
2016-06-20T03:55:36.982Z,1017.51
2016-06-20T03:58:49.711Z,1017.53
2016-06-20T04:02:02.784Z,1017.57
2016-06-20T04:05:15.763Z,1017.49
2016-06-20T04:08:32.715Z,1017.55
2016-06-20T04:11:36.787Z,1017.55
2016-06-20T04:14:49.861Z,1017.63
2016-06-20T04:18:02.793Z,1017.61
2016-06-20T04:21:15.819Z,1017.57
2016-06-20T04:24:32.832Z,1017.55
2016-06-20T04:27:36.967Z,1017.57
2016-06-20T04:30:48.978Z,1017.51
2016-06-20T04:34:02.863Z,1017.45
2016-06-20T04:37:16.248Z,1017.49
2016-06-20T04:40:33.325Z,1017.43
2016-06-20T04:43:37.664Z,1017.53
2016-06-20T04:46:50.643Z,1017.51
2016-06-20T04:50:03.668Z,1017.49
2016-06-20T04:53:16.444Z,1017.45
2016-06-20T04:56:33.786Z,1017.43
2016-06-20T04:59:38.407Z,1017.45
2016-06-20T05:02:51.730Z,1017.45
2016-06-20T05:06:05.146Z,1017.39
2016-06-20T05:09:18.391Z,1017.41
2016-06-20T05:12:31.842Z,1017.27
2016-06-20T05:15:45.477Z,1017.27
2016-06-20T05:18:58.910Z,1017.37
2016-06-20T05:22:12.467Z,1017.23
2016-06-20T05:25:30.278Z,1017.31
2016-06-20T05:28:35.257Z,1017.33
2016-06-20T05:31:49.111Z,1017.23
2016-06-20T05:35:03.059Z,1017.25
2016-06-20T05:38:16.679Z,1017.25
2016-06-20T05:41:34.442Z,1017.25
2016-06-20T05:44:39.562Z,1017.15
2016-06-20T05:47:53.291Z,1017.09
2016-06-20T05:51:07.348Z,1017.01
2016-06-20T05:54:21.453Z,1016.99
2016-06-20T05:57:34.435Z,1017.01
2016-06-20T06:00:44.805Z,1016.95
2016-06-20T06:03:58.784Z,1016.83
2016-06-20T06:07:12.920Z,1016.82
2016-06-20T06:10:31.136Z,1016.64
2016-06-20T06:13:36.694Z,1016.68
2016-06-20T06:16:50.939Z,1016.78
2016-06-20T06:20:04.980Z,1016.6
2016-06-20T06:23:19.053Z,1016.5
2016-06-20T06:26:33.458Z,1016.36
2016-06-20T06:29:47.686Z,1016.34
2016-06-20T06:33:01.854Z,1016.34
2016-06-20T06:36:16.817Z,1016.3
2016-06-20T06:39:31.940Z,1016.24
2016-06-20T06:42:47.059Z,1016.08
2016-06-20T06:46:01.977Z,1016.04
2016-06-20T06:49:16.987Z,1016
2016-06-20T06:52:32.079Z,1016.04
2016-06-20T06:55:47.104Z,1016.08
2016-06-20T06:59:02.178Z,1016.12
2016-06-20T07:02:17.048Z,1016.16
2016-06-20T07:05:35.796Z,1016.14
2016-06-20T07:08:42.166Z,1016.06
2016-06-20T07:11:57.317Z,1016.04
2016-06-20T07:15:12.061Z,1016.16
2016-06-20T07:18:30.903Z,1016.04
2016-06-20T07:21:37.351Z,1016.02
2016-06-20T07:24:52.095Z,1016.04
2016-06-20T07:28:06.965Z,1015.96
2016-06-20T07:31:22.068Z,1015.92
2016-06-20T07:34:37.216Z,1015.92
2016-06-20T07:37:52.311Z,1015.84
2016-06-20T07:41:07.843Z,1015.76
2016-06-20T07:44:26.715Z,1015.9
2016-06-20T07:47:33.481Z,1015.9
2016-06-20T07:50:49.070Z,1015.9
2016-06-20T07:54:04.423Z,1015.94
2016-06-20T07:57:19.668Z,1015.9
2016-06-20T08:00:34.917Z,1015.82
2016-06-20T08:03:48.942Z,1015.74
2016-06-20T08:07:05.313Z,1015.78
2016-06-20T08:10:20.635Z,1015.8
2016-06-20T08:13:35.727Z,1015.66
2016-06-20T08:16:51.020Z,1015.72
2016-06-20T08:20:06.264Z,1015.62
2016-06-20T08:23:21.180Z,1015.72
2016-06-20T08:26:36.522Z,1015.6
2016-06-20T08:29:51.642Z,1015.58
2016-06-20T08:33:06.824Z,1015.54
2016-06-20T08:36:21.772Z,1015.54
2016-06-20T08:39:36.829Z,1015.66
2016-06-20T08:42:52.109Z,1015.6
2016-06-20T08:46:07.588Z,1015.6
2016-06-20T08:49:26.536Z,1015.58
2016-06-20T08:52:33.281Z,1015.52
2016-06-20T08:55:48.483Z,1015.42
2016-06-20T08:59:03.430Z,1015.48
2016-06-20T09:02:18.675Z,1015.5
2016-06-20T09:05:33.701Z,1015.38
2016-06-20T09:08:49.089Z,1015.5
2016-06-20T09:12:04.303Z,1015.52
2016-06-20T09:15:19.407Z,1015.56
2016-06-20T09:18:34.558Z,1015.44
2016-06-20T09:21:49.634Z,1015.4
2016-06-20T09:25:04.754Z,1015.26
2016-06-20T09:28:19.843Z,1015.36
2016-06-20T09:31:34.603Z,1015.32
2016-06-20T09:34:49.757Z,1015.3
2016-06-20T09:38:04.783Z,1015.34
2016-06-20T09:41:19.685Z,1015.3
2016-06-20T09:44:34.821Z,1015.28
2016-06-20T09:47:49.819Z,1015.24
2016-06-20T09:51:04.203Z,1015.4
2016-06-20T09:54:18.167Z,1015.42
2016-06-20T09:57:33.005Z,1015.3
2016-06-20T10:00:48.082Z,1015.3
2016-06-20T10:04:02.935Z,1015.34
2016-06-20T10:07:17.728Z,1015.38
2016-06-20T10:10:32.411Z,1015.34
2016-06-20T10:13:46.939Z,1015.28
2016-06-20T10:17:01.106Z,1015.3
2016-06-20T10:20:15.304Z,1015.28
2016-06-20T10:23:33.784Z,1015.4
2016-06-20T10:26:39.934Z,1015.32
2016-06-20T10:29:54.714Z,1015.28
2016-06-20T10:33:09.443Z,1015.32
2016-06-20T10:36:28.391Z,1015.26
2016-06-20T10:39:34.667Z,1015.3
2016-06-20T10:42:49.650Z,1015.28
2016-06-20T10:46:04.628Z,1015.28
2016-06-20T10:49:19.483Z,1015.28
2016-06-20T10:52:34.368Z,1015.26
2016-06-20T10:55:49.070Z,1015.28
2016-06-20T10:59:03.580Z,1015.18
2016-06-20T11:02:17.966Z,1015.12
2016-06-20T11:05:35.976Z,1015.14
2016-06-20T11:08:41.314Z,1015.14
2016-06-20T11:11:55.312Z,1015.2
2016-06-20T11:15:09.275Z,1015.14
2016-06-20T11:18:27.599Z,1015.16
2016-06-20T11:21:33.234Z,1015.26
2016-06-20T11:24:47.495Z,1015.14
2016-06-20T11:28:01.758Z,1015.12
2016-06-20T11:31:15.472Z,1015.14
2016-06-20T11:34:33.607Z,1015.14
2016-06-20T11:37:39.149Z,1014.96
2016-06-20T11:40:53.350Z,1015.06
2016-06-20T11:44:07.220Z,1015.04
2016-06-20T11:47:21.355Z,1014.94
2016-06-20T11:50:35.741Z,1014.89
2016-06-20T11:53:49.906Z,1014.85
2016-06-20T11:57:04.156Z,1014.75
2016-06-20T12:11:24.732Z,1014.73
2016-06-20T12:11:25.138Z,1014.63
2016-06-20T12:13:15.412Z,1014.51
2016-06-20T12:16:33.548Z,1014.45
2016-06-20T12:19:38.997Z,1014.49
2016-06-20T12:22:52.976Z,1014.47
2016-06-20T12:26:07.036Z,1014.39
2016-06-20T12:29:21.157Z,1014.29
2016-06-20T12:32:35.167Z,1014.29
2016-06-20T12:35:49.256Z,1014.21
2016-06-20T12:39:03.379Z,1014.21
2016-06-20T12:42:17.513Z,1014.11
2016-06-20T12:45:35.743Z,1014.13
2016-06-20T12:48:41.082Z,1014.01
2016-06-20T12:51:55.045Z,1014.25
2016-06-20T12:55:09.090Z,1014.09
2016-06-20T12:58:27.241Z,1013.97
2016-06-20T13:01:32.768Z,1013.89
2016-06-20T13:04:46.528Z,1013.85
2016-06-20T13:08:00.647Z,1013.77
2016-06-20T13:11:14.942Z,1013.73
2016-06-20T13:14:32.875Z,1013.87
2016-06-20T13:17:38.276Z,1013.81
2016-06-20T13:20:52.395Z,1013.71
2016-06-20T13:24:06.626Z,1013.65
2016-06-20T13:27:20.811Z,1013.57
2016-06-20T13:30:34.931Z,1013.57
2016-06-20T13:33:49.191Z,1013.55
2016-06-20T13:37:03.264Z,1013.51
2016-06-20T13:40:17.590Z,1013.49
2016-06-20T13:43:33.648Z,1013.55
2016-06-20T13:46:39.111Z,1013.39
2016-06-20T13:49:52.090Z,1013.25
2016-06-20T13:53:04.163Z,1013.33
2016-06-20T13:56:18.536Z,1013.17
2016-06-20T13:59:32.812Z,1013.15
2016-06-20T14:02:47.260Z,1013.04
2016-06-20T14:06:01.099Z,1013.04
2016-06-20T14:09:12.578Z,1013
2016-06-20T14:12:30.764Z,1013
2016-06-20T14:15:36.118Z,1012.92
2016-06-20T14:18:50.331Z,1013.02
2016-06-20T14:22:04.435Z,1012.88
2016-06-20T14:25:18.759Z,1012.88
2016-06-20T14:27:10.633Z,1012.72
2016-06-20T14:30:16.175Z,1012.68
2016-06-20T14:33:30.502Z,1012.7
2016-06-20T14:36:44.760Z,1012.62
2016-06-20T14:40:02.723Z,1012.58
2016-06-20T14:43:08.209Z,1012.48
2016-06-20T14:46:22.362Z,1012.46
2016-06-20T14:49:36.645Z,1012.28
2016-06-20T14:52:50.996Z,1012.44
2016-06-20T14:56:09.174Z,1012.42
2016-06-20T14:59:14.707Z,1012.4
2016-06-20T15:02:29.113Z,1012.24
2016-06-20T15:05:43.264Z,1012.22
2016-06-20T15:09:01.294Z,1012.18
2016-06-20T15:12:10.738Z,1012.06
2016-06-20T15:15:16.117Z,1012.04
2016-06-20T15:18:30.324Z,1012
2016-06-20T15:21:44.288Z,1011.98
2016-06-20T15:25:02.451Z,1011.98
2016-06-20T15:28:07.984Z,1011.84
2016-06-20T15:31:22.132Z,1011.88
2016-06-20T15:34:36.099Z,1011.82
2016-06-20T15:37:50.279Z,1011.74
2016-06-20T15:41:08.658Z,1011.78
2016-06-20T15:44:13.170Z,1011.68
2016-06-20T15:47:28.648Z,1011.63
2016-06-20T15:50:41.315Z,1011.66
2016-06-20T15:53:55.487Z,1011.55
2016-06-20T15:57:09.610Z,1011.59
2016-06-20T16:00:23.632Z,1011.45
2016-06-20T16:03:37.938Z,1011.45
2016-06-20T16:06:51.944Z,1011.49
2016-06-20T16:10:09.812Z,1011.33
2016-06-20T16:13:15.362Z,1011.39
2016-06-20T16:16:29.561Z,1011.27
2016-06-20T16:19:43.588Z,1011.37
2016-06-20T16:23:01.416Z,1011.31
2016-06-20T16:26:10.914Z,1011.31
2016-06-20T16:29:16.423Z,1011.33
2016-06-20T16:32:26.555Z,1011.31
2016-06-20T16:35:41.382Z,1011.31
2016-06-20T16:38:55.526Z,1011.29
2016-06-20T16:42:09.643Z,1011.15
2016-06-20T16:45:22.523Z,1011.13
2016-06-20T16:48:36.714Z,1011.07
2016-06-20T16:51:50.947Z,1010.93
2016-06-20T16:55:09.055Z,1010.99
2016-06-20T16:58:14.630Z,1011.01
2016-06-20T17:01:28.936Z,1011.01
2016-06-20T17:04:42.920Z,1010.91
2016-06-20T17:07:57.286Z,1010.85
2016-06-20T17:11:11.533Z,1010.95
2016-06-20T17:14:25.699Z,1011.03
2016-06-20T17:17:39.616Z,1011.03
2016-06-20T17:20:51.851Z,1011.13
2016-06-20T17:24:09.931Z,1011.13
2016-06-20T17:27:15.504Z,1011.13
2016-06-20T17:30:29.069Z,1011.23
2016-06-20T17:33:43.412Z,1011.17
2016-06-20T17:36:55.594Z,1011.07
2016-06-20T17:40:09.516Z,1011.13
2016-06-20T17:43:21.974Z,1011.11
2016-06-20T17:46:36.127Z,1011.01
2016-06-20T17:49:50.207Z,1011.01
2016-06-20T17:53:08.262Z,1011.03
2016-06-20T17:56:13.770Z,1010.93
2016-06-20T17:59:28.150Z,1010.89
2016-06-20T18:02:42.229Z,1010.87
2016-06-20T18:05:56.450Z,1010.85
2016-06-20T18:09:10.375Z,1010.95
2016-06-20T18:12:24.445Z,1010.81
2016-06-20T18:15:38.594Z,1010.81
2016-06-20T18:18:52.825Z,1010.83
2016-06-20T18:22:10.801Z,1010.95
2016-06-20T18:25:16.085Z,1010.93
2016-06-20T18:28:30.174Z,1010.93
2016-06-20T18:31:44.197Z,1011.09
2016-06-20T18:35:02.155Z,1010.99
2016-06-20T18:38:06.417Z,1011.03
2016-06-20T18:41:21.538Z,1011.01
2016-06-20T18:44:35.186Z,1010.87
2016-06-20T18:47:47.818Z,1011.05
2016-06-20T18:51:05.301Z,1010.91
2016-06-20T18:54:10.522Z,1011.05
2016-06-20T18:57:22.420Z,1011.01
2016-06-20T19:00:34.289Z,1010.93
2016-06-20T19:03:48.410Z,1010.95
2016-06-20T19:07:06.288Z,1011.01
2016-06-20T19:10:11.638Z,1010.95
2016-06-20T19:13:25.632Z,1011.03
2016-06-20T19:16:39.773Z,1010.95
2016-06-20T19:41:55.834Z,1011.05
2016-06-20T19:45:05.925Z,1011.07
2016-06-20T19:48:23.608Z,1010.95
2016-06-20T19:51:28.910Z,1010.99
2016-06-20T19:54:42.983Z,1011.07
2016-06-20T19:57:56.089Z,1011.09
2016-06-20T20:01:10.097Z,1011.05
2016-06-20T20:04:27.943Z,1011.05
2016-06-20T20:07:33.329Z,1010.91
2016-06-20T20:10:47.218Z,1011.09
2016-06-20T20:14:00.834Z,1011.01
2016-06-20T20:17:14.594Z,1011.15
2016-06-20T20:20:28.418Z,1011.11
2016-06-20T20:23:42.514Z,1010.93
2016-06-20T20:26:56.130Z,1011.03
2016-06-20T20:30:10.095Z,1011.05
2016-06-20T20:33:28.007Z,1011.09
2016-06-20T20:36:33.027Z,1011.07
2016-06-20T20:39:46.637Z,1011.05
2016-06-20T20:43:00.473Z,1011.05
2016-06-20T20:46:14.117Z,1011.03
2016-06-20T20:49:28.777Z,1011.07
2016-06-20T20:52:33.915Z,1011.09
2016-06-20T20:55:47.863Z,1011.05
2016-06-20T20:59:01.769Z,1011.03
2016-06-20T21:02:15.657Z,1011.03
2016-06-20T21:05:29.280Z,1011.01
2016-06-20T21:08:42.995Z,1011.07
2016-06-20T21:11:57.007Z,1011.03
2016-06-20T21:15:10.634Z,1011.07
2016-06-20T21:18:28.353Z,1011.01
2016-06-20T21:21:33.539Z,1011.01
2016-06-20T21:24:47.206Z,1010.99
2016-06-20T21:28:01.087Z,1010.99
2016-06-20T21:31:14.876Z,1011.05
2016-06-20T21:34:29.956Z,1010.99
2016-06-20T21:37:33.851Z,1011.09
2016-06-20T21:40:48.609Z,1010.93
2016-06-20T21:44:02.523Z,1010.93
2016-06-20T21:47:15.765Z,1010.95
2016-06-20T21:50:26.167Z,1010.87
2016-06-20T21:53:39.993Z,1010.89
2016-06-20T21:56:51.728Z,1010.87
2016-06-20T22:00:04.161Z,1010.89
2016-06-20T22:03:22.835Z,1010.85
2016-06-20T22:06:27.806Z,1010.79
2016-06-20T22:09:41.442Z,1010.77
2016-06-20T22:12:54.928Z,1010.75
2016-06-20T22:16:08.463Z,1010.67
2016-06-20T22:19:24.798Z,1010.83
2016-06-20T22:22:29.831Z,1010.67
2016-06-20T22:25:43.621Z,1010.65
2016-06-20T22:28:57.482Z,1010.67
2016-06-20T22:32:11.438Z,1010.63
2016-06-20T22:35:29.002Z,1010.59
2016-06-20T22:38:33.994Z,1010.55
2016-06-20T22:41:47.796Z,1010.55
2016-06-20T22:44:59.743Z,1010.57
2016-06-20T22:48:13.683Z,1010.47
2016-06-20T22:51:27.376Z,1010.57
2016-06-20T22:54:41.032Z,1010.51
2016-06-20T22:57:54.635Z,1010.51
2016-06-20T23:01:08.031Z,1010.49
2016-06-20T23:04:25.694Z,1010.51
2016-06-20T23:07:30.605Z,1010.49
2016-06-20T23:10:44.523Z,1010.49
2016-06-20T23:13:58.028Z,1010.51
2016-06-20T23:17:10.742Z,1010.35
2016-06-20T23:20:27.593Z,1010.37
2016-06-20T23:23:32.399Z,1010.33
2016-06-20T23:26:46.043Z,1010.35
2016-06-20T23:29:59.840Z,1010.35
2016-06-20T23:33:13.328Z,1010.29
2016-06-20T23:36:26.957Z,1010.35
2016-06-20T23:39:40.847Z,1010.27
2016-06-20T23:42:54.347Z,1010.35
2016-06-20T23:46:05.558Z,1010.27
2016-06-20T23:49:23.120Z,1010.31
2016-06-20T23:52:28.012Z,1010.37
2016-06-20T23:55:41.311Z,1010.35
2016-06-20T23:58:54.743Z,1010.25
